Time;durP1;ratioP1;P1;durP2;ratioP2;P2;SDS_P1;SDS_P2;PMS_P1;PMS_P2;Temp;Humidity;BMP_temperature;BMP_pressure;BME280_temperature;BME280_humidity;BME280_pressure;Samples;Min_cycle;Max_cycle;Signal;HPM_P1;HPM_P2
2022/12/18 00:01:53;;;;;;;74.25;22.83;;;;;;;-5.53;56.38;102809.00;4939240;28;20059;-77
2022/12/18 00:04:22;;;;;;;77.57;22.48;;;;;;;-6.08;57.49;102789.69;4936087;28;20059;-76
2022/12/18 00:06:48;;;;;;;76.47;24.02;;;;;;;-5.92;57.13;102782.97;4941972;28;20034;-81
2022/12/18 00:09:13;;;;;;;75.72;24.45;;;;;;;-6.39;58.19;102790.41;4926493;29;20122;-79
2022/12/18 00:11:39;;;;;;;72.65;22.35;;;;;;;-6.03;57.65;102785.75;4942841;29;20058;-78
2022/12/18 00:14:04;;;;;;;87.07;24.45;;;;;;;-6.41;58.18;102789.44;4940404;28;20123;-78
2022/12/18 00:16:32;;;;;;;73.60;21.98;;;;;;;-5.95;57.52;102791.31;4923793;29;20047;-76
2022/12/18 00:18:59;;;;;;;82.38;23.73;;;;;;;-6.16;57.57;102803.63;4903933;29;20035;-75
2022/12/18 00:21:25;;;;;;;84.82;22.85;;;;;;;-5.90;57.06;102801.78;4917130;29;20046;-75
2022/12/18 00:23:51;;;;;;;73.20;23.00;;;;;;;-5.86;57.08;102814.78;4928699;28;20051;-79
2022/12/18 00:26:17;;;;;;;72.68;22.90;;;;;;;-6.00;57.06;102820.69;4927104;29;20063;-78
2022/12/18 00:28:45;;;;;;;90.88;22.70;;;;;;;-6.28;57.27;102823.28;4931955;28;20339;-72
2022/12/18 00:31:13;;;;;;;72.05;21.17;;;;;;;-6.62;58.61;102811.91;4935348;29;20077;-74
2022/12/18 00:33:38;;;;;;;67.72;22.20;;;;;;;-5.86;56.69;102817.31;4933943;28;20067;-74
2022/12/18 00:36:07;;;;;;;78.70;23.02;;;;;;;-6.09;56.60;102804.88;4934283;28;20519;-74
2022/12/18 00:38:33;;;;;;;73.47;21.80;;;;;;;-5.97;56.86;102795.44;4923370;28;20067;-73
2022/12/18 00:40:59;;;;;;;92.25;22.15;;;;;;;-5.99;56.79;102797.88;4950363;28;20448;-73
2022/12/18 00:43:24;;;;;;;83.95;22.15;;;;;;;-5.65;55.93;102804.94;4931084;28;20512;-73
2022/12/18 00:45:52;;;;;;;77.22;24.52;;;;;;;-6.44;57.80;102807.06;4949867;28;20027;-73
2022/12/18 00:48:17;;;;;;;83.53;23.40;;;;;;;-6.44;57.94;102812.16;4920075;28;20453;-73
2022/12/18 00:50:43;;;;;;;87.45;25.40;;;;;;;-6.07;57.40;102813.50;4924937;29;20125;-73
2022/12/18 00:53:09;;;;;;;84.25;23.77;;;;;;;-5.87;56.89;102807.03;4918890;28;20065;-73
2022/12/18 00:55:34;;;;;;;80.20;22.88;;;;;;;-5.82;56.17;102806.53;4917097;29;20528;-73
2022/12/18 00:58:00;;;;;;;71.85;21.83;;;;;;;-5.47;55.30;102810.22;4924251;29;20036;-73
2022/12/18 01:00:25;;;;;;;73.78;21.30;;;;;;;-5.82;56.03;102820.91;4900787;29;20430;-73
2022/12/18 01:02:53;;;;;;;83.95;24.25;;;;;;;-5.64;55.50;102826.19;4913572;28;20054;-74
2022/12/18 01:05:19;;;;;;;83.10;24.25;;;;;;;-5.56;54.89;102838.59;4906034;29;20032;-74
2022/12/18 01:07:44;;;;;;;71.68;21.42;;;;;;;-6.11;56.68;102850.59;4922866;28;20051;-73
2022/12/18 01:10:11;;;;;;;75.82;22.88;;;;;;;-5.60;55.52;102854.50;4931552;29;20035;-73
2022/12/18 01:12:37;;;;;;;80.70;21.80;;;;;;;-5.61;55.31;102855.28;4933413;28;20511;-73
2022/12/18 01:15:03;;;;;;;68.70;23.45;;;;;;;-5.63;55.07;102854.31;4934596;28;20042;-73
2022/12/18 01:17:28;;;;;;;72.18;21.08;;;;;;;-5.63;55.01;102851.78;4932606;28;20047;-73
2022/12/18 01:19:54;;;;;;;75.18;22.85;;;;;;;-5.92;55.73;102844.09;4930885;29;20046;-73
2022/12/18 01:22:19;;;;;;;70.30;22.27;;;;;;;-6.14;56.22;102847.88;4931531;28;20059;-72
2022/12/18 01:24:45;;;;;;;64.30;20.92;;;;;;;-6.32;57.18;102851.84;4934064;29;20104;-73
2022/12/18 01:27:10;;;;;;;64.05;20.50;;;;;;;-6.06;56.00;102849.22;4916462;29;20498;-73
2022/12/18 01:29:36;;;;;;;71.65;22.10;;;;;;;-6.08;55.82;102858.44;4900863;29;20047;-74
2022/12/18 01:32:01;;;;;;;75.97;22.73;;;;;;;-6.06;55.43;102858.50;4918825;28;20043;-73
2022/12/18 01:34:28;;;;;;;77.18;22.70;;;;;;;-6.96;58.23;102863.94;4923771;29;20078;-73
2022/12/18 01:36:54;;;;;;;72.68;23.13;;;;;;;-6.83;57.89;102866.50;4922115;28;20043;-73
2022/12/18 01:39:19;;;;;;;67.68;21.48;;;;;;;-6.68;57.33;102872.56;4933800;29;20078;-73
2022/12/18 01:42:01;;;;;;;74.25;24.60;;;;;;;-6.81;57.48;102868.34;4931561;28;20540;-73
2022/12/18 01:44:57;;;;;;;73.07;21.67;;;;;;;-6.59;56.55;102872.25;4935272;28;20031;-76
2022/12/18 01:47:34;;;;;;;64.40;22.20;;;;;;;-6.54;56.11;102875.97;4921279;28;20051;-76
2022/12/18 01:50:04;;;;;;;64.20;22.38;;;;;;;-6.32;55.77;102879.84;4915669;29;20114;-76
2022/12/18 01:52:32;;;;;;;66.22;23.73;;;;;;;-6.17;54.92;102879.13;4913412;29;20063;-73
2022/12/18 01:54:59;;;;;;;76.80;21.55;;;;;;;-6.26;55.22;102877.69;4912391;29;20039;-73
2022/12/18 01:57:26;;;;;;;68.53;20.05;;;;;;;-6.36;55.61;102875.34;4912071;29;20044;-81
2022/12/18 01:59:55;;;;;;;59.17;20.98;;;;;;;-6.45;55.47;102879.06;4926736;29;20462;-82
2022/12/18 02:02:22;;;;;;;58.88;22.60;;;;;;;-6.81;57.08;102865.81;4932055;29;20106;-81
2022/12/18 02:04:47;;;;;;;74.97;23.98;;;;;;;-6.60;55.35;102866.28;4962350;28;20027;-77
2022/12/18 02:07:22;;;;;;;66.70;20.88;;;;;;;-6.97;56.33;102870.69;4943082;28;20059;-78
2022/12/18 02:10:06;;;;;;;64.30;19.08;;;;;;;-6.82;56.28;102869.13;4943840;29;20047;-78
2022/12/18 02:12:45;;;;;;;75.70;19.60;;;;;;;-6.89;56.56;102882.25;4938754;28;20110;-78
2022/12/18 02:15:36;;;;;;;63.10;21.27;;;;;;;-6.77;56.34;102876.19;4938760;29;20086;-81
2022/12/18 02:18:05;;;;;;;70.07;20.48;;;;;;;-6.51;55.31;102867.63;4942531;28;20047;-83
2022/12/18 02:20:39;;;;;;;61.85;19.60;;;;;;;-6.54;54.96;102859.81;4933861;29;20468;-82
2022/12/18 02:23:30;;;;;;;70.60;19.70;;;;;;;-6.43;54.51;102867.31;4932396;28;20066;-81
2022/12/18 02:26:15;;;;;;;57.77;18.07;;;;;;;-6.50;54.52;102867.75;4944112;29;20042;-82
2022/12/18 02:28:46;;;;;;;63.30;19.50;;;;;;;-6.55;54.72;102868.22;4946649;28;20283;-79
2022/12/18 02:31:21;;;;;;;66.57;21.13;;;;;;;-6.86;55.50;102862.09;4942505;29;20039;-78
2022/12/18 02:33:48;;;;;;;68.60;22.35;;;;;;;-7.12;54.99;102862.06;4924697;28;20433;-76
2022/12/18 02:36:16;;;;;;;70.20;21.08;;;;;;;-6.73;54.69;102862.84;4937404;28;20063;-77
2022/12/18 02:38:45;;;;;;;59.03;21.80;;;;;;;-6.72;54.83;102857.00;4931812;28;20516;-77
2022/12/18 02:41:15;;;;;;;71.22;20.42;;;;;;;-6.88;54.92;102863.66;4907606;29;20067;-76
2022/12/18 02:43:50;;;;;;;60.55;20.08;;;;;;;-7.17;55.68;102858.38;4904685;28;20266;-76
2022/12/18 02:46:30;;;;;;;70.93;21.63;;;;;;;-7.13;55.76;102850.16;4907265;29;20040;-76
2022/12/18 02:49:24;;;;;;;68.97;21.33;;;;;;;-6.93;55.22;102854.88;4938444;28;20553;-76
2022/12/18 02:52:27;;;;;;;59.35;21.13;;;;;;;-6.94;55.13;102847.13;4940094;28;20034;-77
2022/12/18 02:55:08;;;;;;;65.68;19.08;;;;;;;-7.40;56.25;102854.31;4933853;28;20031;-72
2022/12/18 02:57:44;;;;;;;56.13;18.95;;;;;;;-6.94;54.93;102863.25;4922349;28;20039;-76
2022/12/18 03:00:18;;;;;;;66.70;21.48;;;;;;;-7.04;54.87;102860.94;4949399;28;20040;-76
2022/12/18 03:03:09;;;;;;;68.80;19.50;;;;;;;-6.94;54.50;102848.00;4942176;29;20643;-73
2022/12/18 03:05:41;;;;;;;62.67;20.88;;;;;;;-7.05;54.65;102838.81;4933393;28;20042;-73
2022/12/18 03:08:21;;;;;;;63.85;21.35;;;;;;;-7.42;55.89;102849.16;4919544;29;20055;-73
2022/12/18 03:10:59;;;;;;;65.53;20.05;;;;;;;-7.14;54.96;102854.34;4935345;29;20107;-73
2022/12/18 03:13:52;;;;;;;73.50;21.75;;;;;;;-7.02;54.45;102854.28;4932820;29;20119;-73
2022/12/18 03:16:24;;;;;;;49.33;18.38;;;;;;;-7.05;54.35;102854.06;4934205;29;20031;-74
2022/12/18 03:18:54;;;;;;;62.65;20.38;;;;;;;-7.06;54.23;102852.31;4924958;28;20492;-73
2022/12/18 03:21:26;;;;;;;60.20;19.60;;;;;;;-7.37;54.93;102855.41;4934012;28;20477;-74
2022/12/18 03:23:54;;;;;;;63.45;17.80;;;;;;;-6.96;53.85;102867.34;4940049;28;20054;-74
2022/12/18 03:26:26;;;;;;;60.15;21.73;;;;;;;-6.97;53.55;102863.06;4922062;28;20099;-73
2022/12/18 03:29:03;;;;;;;65.80;19.02;;;;;;;-6.97;53.62;102858.00;4947200;28;20509;-73
2022/12/18 03:31:32;;;;;;;64.93;19.05;;;;;;;-7.51;54.96;102853.63;4928800;29;20567;-73
2022/12/18 03:34:08;;;;;;;59.13;21.55;;;;;;;-7.80;56.30;102857.63;4935826;28;20046;-74
2022/12/18 03:36:40;;;;;;;59.38;18.35;;;;;;;-7.33;54.69;102857.38;4935035;29;20110;-73
2022/12/18 03:39:06;;;;;;;55.75;19.80;;;;;;;-7.35;54.76;102851.31;4926623;29;20044;-74
2022/12/18 03:41:52;;;;;;;73.45;20.67;;;;;;;-7.60;55.34;102855.53;4935917;29;20039;-74
2022/12/18 03:44:40;;;;;;;64.93;19.90;;;;;;;-7.64;55.78;102845.19;4929121;29;20055;-79
2022/12/18 03:47:32;;;;;;;63.95;19.05;;;;;;;-7.36;54.79;102848.66;4940601;28;20043;-73
2022/12/18 03:50:14;;;;;;;54.72;18.70;;;;;;;-7.75;55.01;102842.72;4933614;28;20066;-73
2022/12/18 03:53:40;;;;;;;55.85;17.60;;;;;;;-7.27;54.39;102836.53;4924709;28;20125;-73
2022/12/18 03:56:08;;;;;;;52.03;17.45;;;;;;;-7.35;54.07;102827.56;4860835;29;20048;-73
2022/12/18 03:58:40;;;;;;;51.55;17.33;;;;;;;-7.29;53.78;102825.41;4856186;29;20509;-73
2022/12/18 04:01:17;;;;;;;57.22;16.83;;;;;;;-7.25;53.59;102824.81;4914885;29;20039;-74
2022/12/18 04:03:46;;;;;;;49.25;17.77;;;;;;;-8.05;55.92;102815.38;4938519;28;20043;-73
2022/12/18 04:06:13;;;;;;;60.88;18.92;;;;;;;-7.74;55.04;102817.41;4928806;29;20588;-71
2022/12/18 04:08:41;;;;;;;60.47;22.40;;;;;;;-7.60;54.41;102819.97;4931960;29;20045;-71
2022/12/18 04:11:09;;;;;;;43.25;16.45;;;;;;;-7.82;55.34;102828.72;4935412;29;20596;-70
2022/12/18 04:13:36;;;;;;;65.28;20.85;;;;;;;-7.74;55.04;102825.00;4937150;28;20049;-71
2022/12/18 04:16:05;;;;;;;58.28;21.15;;;;;;;-7.77;54.60;102832.44;4940929;29;20087;-71
2022/12/18 04:18:31;;;;;;;58.78;18.45;;;;;;;-7.73;54.60;102836.94;4934045;28;20390;-69
2022/12/18 04:20:59;;;;;;;57.83;20.52;;;;;;;-7.69;54.48;102841.47;4918419;29;20049;-73
2022/12/18 04:23:24;;;;;;;52.53;16.65;;;;;;;-8.03;55.53;102837.41;4940881;28;20107;-73
2022/12/18 04:25:54;;;;;;;67.82;20.23;;;;;;;-7.99;55.24;102844.47;4932343;29;20066;-73
2022/12/18 04:28:34;;;;;;;55.10;17.83;;;;;;;-7.95;55.07;102842.25;4938669;28;20047;-73
2022/12/18 04:30:59;;;;;;;47.92;19.38;;;;;;;-7.88;54.70;102848.59;4938905;29;20055;-73
2022/12/18 04:33:31;;;;;;;58.30;17.05;;;;;;;-7.87;54.48;102856.34;4933683;28;20241;-73
2022/12/18 04:35:57;;;;;;;51.65;18.33;;;;;;;-7.63;54.11;102861.28;4923818;29;20437;-73
2022/12/18 04:38:24;;;;;;;58.10;18.15;;;;;;;-7.94;54.50;102864.31;4934920;28;20164;-73
2022/12/18 04:40:56;;;;;;;59.20;20.67;;;;;;;-7.78;54.10;102876.38;4935056;28;20035;-73
2022/12/18 04:43:26;;;;;;;67.07;19.13;;;;;;;-7.61;53.36;102874.09;4939414;28;20394;-73
2022/12/18 04:45:51;;;;;;;61.88;18.10;;;;;;;-7.88;54.25;102869.78;4935109;29;20030;-73
2022/12/18 04:48:17;;;;;;;52.75;19.42;;;;;;;-7.79;53.97;102876.28;4934736;28;20728;-74
2022/12/18 04:50:42;;;;;;;53.13;18.52;;;;;;;-7.76;53.87;102879.00;4936724;29;20034;-72
2022/12/18 04:53:08;;;;;;;50.17;15.52;;;;;;;-7.95;53.91;102882.84;4923735;28;20039;-74
2022/12/18 04:55:33;;;;;;;52.35;17.40;;;;;;;-7.94;54.07;102879.56;4929337;29;20031;-73
2022/12/18 04:57:59;;;;;;;59.45;17.27;;;;;;;-7.97;54.30;102886.06;4925833;28;20048;-72
2022/12/18 05:00:25;;;;;;;66.90;19.63;;;;;;;-7.69;53.05;102876.13;4933251;29;20035;-77
2022/12/18 05:02:51;;;;;;;55.88;17.45;;;;;;;-8.07;53.75;102877.81;4934076;28;20039;-73
2022/12/18 05:05:16;;;;;;;64.18;18.38;;;;;;;-7.95;53.16;102867.63;4934862;29;20130;-73
2022/12/18 05:07:45;;;;;;;58.22;17.30;;;;;;;-7.98;53.79;102877.56;4938313;28;20139;-72
2022/12/18 05:10:10;;;;;;;48.38;17.35;;;;;;;-7.93;53.46;102880.41;4936404;29;20039;-73
2022/12/18 05:12:57;;;;;;;54.13;18.48;;;;;;;-7.85;52.99;102875.09;4937578;28;20106;-73
2022/12/18 05:15:21;;;;;;;51.80;17.20;;;;;;;-7.87;52.92;102865.59;4932625;29;20039;-74
2022/12/18 05:17:47;;;;;;;52.92;16.67;;;;;;;-7.86;52.66;102864.81;4932660;28;20052;-74
2022/12/18 05:20:12;;;;;;;52.58;17.80;;;;;;;-7.84;52.79;102875.97;4920698;29;20031;-74
2022/12/18 05:22:38;;;;;;;56.38;16.60;;;;;;;-8.00;52.48;102878.25;4934256;28;20488;-76
2022/12/18 05:25:04;;;;;;;52.70;16.00;;;;;;;-7.91;52.36;102872.13;4933822;29;20055;-74
2022/12/18 05:27:29;;;;;;;43.22;13.90;;;;;;;-7.81;52.20;102875.28;4923565;28;20044;-74
2022/12/18 05:29:55;;;;;;;58.17;17.58;;;;;;;-8.44;54.22;102886.19;4934205;29;21529;-74
2022/12/18 05:32:20;;;;;;;51.95;18.17;;;;;;;-8.17;53.15;102875.41;4930862;28;20047;-74
2022/12/18 05:34:46;;;;;;;49.35;16.67;;;;;;;-8.05;52.88;102881.34;4933328;29;20027;-74
2022/12/18 05:37:11;;;;;;;42.90;16.17;;;;;;;-8.05;52.52;102876.28;4934356;28;20055;-74
2022/12/18 05:39:36;;;;;;;57.40;18.58;;;;;;;-8.20;52.70;102876.88;4934964;29;20042;-76
2022/12/18 05:42:02;;;;;;;54.42;16.83;;;;;;;-8.17;53.11;102870.34;4921264;28;20150;-76
2022/12/18 05:44:27;;;;;;;47.95;15.98;;;;;;;-8.15;52.87;102889.09;4933249;29;20031;-74
2022/12/18 05:46:53;;;;;;;43.10;14.98;;;;;;;-8.06;52.79;102883.78;4931468;28;20416;-74
2022/12/18 05:49:18;;;;;;;55.05;14.95;;;;;;;-8.10;52.84;102885.19;4946718;28;20653;-73
2022/12/18 05:51:44;;;;;;;42.33;15.52;;;;;;;-8.11;52.92;102900.34;4932333;28;20047;-74
2022/12/18 05:54:10;;;;;;;45.22;15.80;;;;;;;-8.10;52.44;102902.97;4938303;28;20034;-73
2022/12/18 05:56:36;;;;;;;45.15;15.73;;;;;;;-7.94;52.19;102892.25;4931786;29;20027;-73
2022/12/18 05:59:01;;;;;;;42.00;14.10;;;;;;;-8.52;53.37;102891.59;4930431;28;20142;-73
2022/12/18 06:01:27;;;;;;;38.25;14.70;;;;;;;-8.33;53.49;102895.41;4936173;29;20404;-73
2022/12/18 06:03:52;;;;;;;40.35;13.63;;;;;;;-8.43;53.45;102896.41;4914491;29;20665;-73
2022/12/18 06:06:28;;;;;;;40.13;15.02;;;;;;;-8.41;53.23;102894.00;4919202;28;20098;-73
2022/12/18 06:08:54;;;;;;;41.08;15.45;;;;;;;-8.22;52.92;102907.19;4939733;28;20050;-73
2022/12/18 06:11:23;;;;;;;39.17;13.93;;;;;;;-8.13;52.53;102907.84;4949146;28;20627;-75
2022/12/18 06:13:56;;;;;;;45.22;12.77;;;;;;;-8.35;52.72;102907.13;4959190;28;20466;-72
2022/12/18 06:16:22;;;;;;;33.78;11.98;;;;;;;-8.35;52.51;102904.56;4939933;28;20090;-75
2022/12/18 06:18:47;;;;;;;30.13;12.52;;;;;;;-8.24;53.07;102890.13;4918571;28;20075;-75
2022/12/18 06:21:13;;;;;;;30.27;11.90;;;;;;;-8.29;52.81;102899.94;4950009;28;20505;-76
2022/12/18 06:23:38;;;;;;;39.53;12.95;;;;;;;-8.19;52.59;102902.31;4940640;28;20052;-74
2022/12/18 06:26:09;;;;;;;43.88;13.18;;;;;;;-8.01;52.00;102904.38;4929259;28;20055;-74
2022/12/18 06:28:35;;;;;;;31.85;12.43;;;;;;;-8.01;52.04;102897.66;4928903;28;20453;-73
2022/12/18 06:31:03;;;;;;;36.60;12.48;;;;;;;-8.23;52.41;102904.53;4930927;29;20497;-72
2022/12/18 06:33:28;;;;;;;31.50;10.68;;;;;;;-7.98;51.67;102904.59;4936779;28;20519;-72
2022/12/18 06:35:59;;;;;;;35.20;12.35;;;;;;;-8.15;52.04;102900.91;4920239;29;20296;-73
2022/12/18 06:38:24;;;;;;;32.92;11.88;;;;;;;-7.95;51.54;102897.19;4919406;28;20051;-72
2022/12/18 06:40:50;;;;;;;35.22;12.27;;;;;;;-8.16;51.83;102897.50;4933218;29;20075;-73
2022/12/18 06:43:15;;;;;;;31.20;12.52;;;;;;;-8.23;52.06;102905.41;4932789;28;20047;-72
2022/12/18 06:45:41;;;;;;;29.13;12.13;;;;;;;-8.33;51.93;102901.38;4939186;28;20036;-73
2022/12/18 06:48:06;;;;;;;33.38;10.50;;;;;;;-8.17;51.96;102910.06;4941741;28;20050;-73
2022/12/18 06:50:31;;;;;;;23.80;10.35;;;;;;;-8.62;53.21;102906.03;4936310;29;20036;-72
2022/12/18 06:52:57;;;;;;;27.60;10.52;;;;;;;-8.52;52.79;102910.97;4932085;28;20247;-72
2022/12/18 06:55:25;;;;;;;27.90;10.52;;;;;;;-8.23;51.73;102915.56;4935171;29;20418;-73
2022/12/18 06:57:51;;;;;;;22.77;9.98;;;;;;;-8.40;52.03;102913.53;4931752;28;20043;-72
2022/12/18 07:00:16;;;;;;;25.35;11.02;;;;;;;-8.40;52.24;102911.00;4934662;29;20047;-71
2022/12/18 07:02:42;;;;;;;29.63;10.50;;;;;;;-8.55;52.54;102915.84;4938678;28;20113;-72
2022/12/18 07:05:08;;;;;;;24.20;10.15;;;;;;;-8.57;52.47;102918.25;4936247;28;20257;-73
2022/12/18 07:07:34;;;;;;;29.63;11.52;;;;;;;-8.27;51.92;102909.41;4939555;28;20047;-72
2022/12/18 07:10:00;;;;;;;22.65;8.70;;;;;;;-8.09;51.46;102907.28;4925550;29;20062;-72
2022/12/18 07:12:27;;;;;;;24.35;10.35;;;;;;;-8.18;51.22;102903.19;4932411;28;20540;-72
2022/12/18 07:14:52;;;;;;;27.38;10.48;;;;;;;-8.13;51.01;102905.31;4934437;29;20031;-72
2022/12/18 07:17:17;;;;;;;22.92;9.68;;;;;;;-8.10;51.00;102900.44;4931926;28;20047;-72
2022/12/18 07:19:43;;;;;;;23.27;10.20;;;;;;;-8.41;51.60;102914.28;4933014;29;20043;-72
2022/12/18 07:22:08;;;;;;;30.33;12.77;;;;;;;-8.19;51.16;102912.47;4933205;28;20440;-72
2022/12/18 07:24:34;;;;;;;22.60;9.57;;;;;;;-8.28;51.09;102912.72;4932418;29;20419;-73
2022/12/18 07:27:00;;;;;;;22.27;9.80;;;;;;;-8.27;51.32;102906.00;4937472;28;20640;-73
2022/12/18 07:29:25;;;;;;;26.17;11.13;;;;;;;-8.23;51.09;102902.88;4934515;29;20335;-72
2022/12/18 07:31:51;;;;;;;28.95;10.18;;;;;;;-8.27;50.97;102911.09;4932685;28;20039;-72
2022/12/18 07:34:16;;;;;;;24.15;9.95;;;;;;;-8.23;50.83;102910.50;4931813;28;20036;-72
2022/12/18 07:36:42;;;;;;;26.45;11.75;;;;;;;-8.32;51.05;102908.22;4933808;28;20149;-72
2022/12/18 07:39:07;;;;;;;23.55;9.45;;;;;;;-8.43;51.19;102905.69;4934239;29;20019;-71
2022/12/18 07:41:33;;;;;;;34.38;11.40;;;;;;;-8.41;51.34;102901.59;4935041;28;20564;-72
2022/12/18 07:44:10;;;;;;;27.30;10.57;;;;;;;-8.42;51.12;102900.72;4939645;29;20058;-72
2022/12/18 07:46:35;;;;;;;27.58;9.85;;;;;;;-8.43;50.90;102893.00;4933490;28;20152;-72
2022/12/18 07:49:02;;;;;;;23.60;9.95;;;;;;;-8.46;51.05;102897.09;4928454;29;20094;-72
2022/12/18 07:51:27;;;;;;;18.92;8.15;;;;;;;-8.46;51.21;102897.09;4924466;29;20457;-72
2022/12/18 07:53:53;;;;;;;23.20;9.52;;;;;;;-8.42;51.10;102897.31;4929191;28;20107;-71
2022/12/18 07:56:20;;;;;;;16.27;7.85;;;;;;;-8.38;50.91;102900.19;4934019;28;20721;-71
2022/12/18 07:58:45;;;;;;;19.85;8.75;;;;;;;-8.34;50.89;102903.78;4928954;28;20043;-72
2022/12/18 08:01:13;;;;;;;27.95;10.13;;;;;;;-8.37;50.81;102916.28;4915844;29;20035;-72
2022/12/18 08:03:40;;;;;;;19.48;8.65;;;;;;;-8.37;51.02;102916.28;4928875;28;20054;-72
2022/12/18 08:06:08;;;;;;;24.88;9.70;;;;;;;-8.33;51.05;102918.25;4963023;28;20134;-71
2022/12/18 08:08:35;;;;;;;25.45;9.93;;;;;;;-8.23;50.77;102917.22;4933203;28;20055;-72
2022/12/18 08:11:01;;;;;;;18.23;8.05;;;;;;;-8.18;50.71;102918.44;4938972;29;20043;-72
2022/12/18 08:13:27;;;;;;;21.73;9.65;;;;;;;-8.13;50.66;102912.03;4923195;28;20791;-71
2022/12/18 08:15:56;;;;;;;17.38;8.50;;;;;;;-7.97;50.31;102919.06;4934049;29;20047;-71
2022/12/18 08:18:22;;;;;;;20.17;7.72;;;;;;;-7.81;50.03;102914.25;4917452;28;20075;-72
2022/12/18 08:20:47;;;;;;;15.55;7.28;;;;;;;-7.74;49.99;102902.84;4913966;29;20070;-73
2022/12/18 08:23:13;;;;;;;14.70;7.25;;;;;;;-7.61;50.12;102905.44;4928915;29;20069;-71
2022/12/18 08:25:38;;;;;;;18.08;8.32;;;;;;;-7.54;49.83;102916.91;4930683;29;20083;-72
2022/12/18 08:28:03;;;;;;;25.70;8.93;;;;;;;-7.41;49.64;102914.41;4932076;28;20115;-71
2022/12/18 08:30:29;;;;;;;19.95;8.07;;;;;;;-7.28;49.69;102906.81;4931027;28;20127;-71
2022/12/18 08:32:54;;;;;;;17.10;7.25;;;;;;;-7.23;49.58;102900.38;4928039;28;20190;-72
2022/12/18 08:35:20;;;;;;;16.77;7.03;;;;;;;-7.07;49.63;102899.75;4930506;28;20489;-72
2022/12/18 08:37:45;;;;;;;16.05;6.93;;;;;;;-6.90;49.23;102902.47;4930069;28;20047;-72
2022/12/18 08:40:12;;;;;;;20.02;6.97;;;;;;;-6.75;48.95;102905.16;4930631;29;20674;-72
2022/12/18 08:45:22;;;;;;;12.90;5.63;;;;;;;-6.48;48.80;102911.09;4930334;29;20115;-72
2022/12/18 08:47:47;;;;;;;18.77;8.07;;;;;;;-6.13;48.47;102908.22;4927949;28;20437;-72
2022/12/18 08:50:12;;;;;;;19.02;7.03;;;;;;;-5.66;47.83;102909.28;4927388;29;20331;-72
2022/12/18 08:52:38;;;;;;;17.63;6.50;;;;;;;-5.30;46.82;102902.97;4929513;28;20046;-72
2022/12/18 08:55:04;;;;;;;18.45;6.97;;;;;;;-4.99;45.42;102908.16;4931096;28;20077;-72
2022/12/18 08:57:29;;;;;;;17.73;6.05;;;;;;;-4.89;45.33;102927.41;4929390;28;20215;-72
2022/12/18 08:59:55;;;;;;;13.80;5.47;;;;;;;-5.36;45.56;102934.06;4928269;28;20050;-72
2022/12/18 09:02:20;;;;;;;12.65;5.15;;;;;;;-5.32;45.32;102932.56;4928698;28;20039;-72
2022/12/18 09:04:49;;;;;;;15.65;5.85;;;;;;;-5.58;45.88;102947.19;4927495;28;20035;-72
2022/12/18 09:07:14;;;;;;;11.60;6.38;;;;;;;-5.68;46.89;102947.44;4916428;28;20130;-72
2022/12/18 09:09:40;;;;;;;15.18;5.70;;;;;;;-5.67;46.54;102928.81;4925866;29;20051;-72
2022/12/18 09:12:05;;;;;;;9.57;4.53;;;;;;;-5.72;46.65;102935.31;4931156;28;20607;-72
2022/12/18 09:14:31;;;;;;;11.70;5.60;;;;;;;-5.68;46.19;102931.25;4919779;29;20034;-72
2022/12/18 09:16:56;;;;;;;12.05;5.53;;;;;;;-5.96;47.37;102930.47;4932566;28;20481;-72
2022/12/18 09:19:22;;;;;;;14.80;5.38;;;;;;;-5.57;46.75;102936.22;4928132;28;20363;-72
2022/12/18 09:21:47;;;;;;;9.25;4.63;;;;;;;-5.43;46.60;102941.25;4921688;28;20035;-72
2022/12/18 09:24:16;;;;;;;13.43;5.57;;;;;;;-5.48;46.10;102935.00;4943053;28;20050;-72
2022/12/18 09:26:42;;;;;;;13.80;6.15;;;;;;;-5.34;46.45;102922.28;4925052;28;20055;-75
2022/12/18 09:29:07;;;;;;;13.18;4.68;;;;;;;-5.20;46.00;102938.38;4930006;29;20095;-72
2022/12/18 09:31:33;;;;;;;15.85;6.25;;;;;;;-5.25;46.10;102926.16;4917096;29;20042;-72
2022/12/18 09:33:59;;;;;;;14.55;5.00;;;;;;;-5.16;45.72;102927.56;4939991;28;20260;-72
2022/12/18 09:36:24;;;;;;;18.60;5.07;;;;;;;-5.21;45.72;102939.19;4933193;28;20329;-72
2022/12/18 09:38:50;;;;;;;12.95;4.75;;;;;;;-5.12;45.60;102941.38;4941735;28;20047;-72
2022/12/18 09:41:34;;;;;;;10.25;4.25;;;;;;;-5.03;45.67;102941.03;4929752;29;20139;-72
2022/12/18 09:44:29;;;;;;;13.80;5.85;;;;;;;-5.00;45.52;102943.75;4933971;28;20610;-72
2022/12/18 09:47:17;;;;;;;16.73;6.57;;;;;;;-4.77;45.45;102935.75;4928546;28;20059;-71
2022/12/18 09:49:46;;;;;;;10.02;4.80;;;;;;;-4.71;45.14;102932.66;4931771;29;20342;-71
2022/12/18 09:52:15;;;;;;;14.05;5.63;;;;;;;-4.69;44.84;102937.84;4933417;28;20227;-72
2022/12/18 09:54:43;;;;;;;10.60;5.30;;;;;;;-4.85;44.72;102939.53;4929902;29;20036;-72
2022/12/18 09:57:18;;;;;;;10.45;5.72;;;;;;;-4.96;45.30;102938.06;4930371;28;20240;-71
2022/12/18 09:59:49;;;;;;;10.82;5.82;;;;;;;-4.90;44.94;102929.84;4928788;29;20089;-72
2022/12/18 10:02:25;;;;;;;8.35;5.00;;;;;;;-4.85;44.86;102925.91;4917841;28;20052;-71
2022/12/18 10:05:33;;;;;;;9.93;5.10;;;;;;;-4.82;44.95;102934.59;4925396;28;20035;-73
2022/12/18 10:08:02;;;;;;;9.18;4.65;;;;;;;-4.76;44.86;102926.44;4898535;29;20437;-72
2022/12/18 10:10:46;;;;;;;13.23;5.03;;;;;;;-4.73;45.15;102917.25;4931675;28;20059;-72
2022/12/18 10:13:34;;;;;;;15.82;4.57;;;;;;;-4.81;45.30;102915.06;4927253;28;20077;-72
2022/12/18 10:16:22;;;;;;;11.25;5.78;;;;;;;-4.81;44.88;102923.63;4928682;29;20674;-70
2022/12/18 10:19:15;;;;;;;14.27;4.90;;;;;;;-4.56;45.07;102925.00;4929808;28;20098;-71
2022/12/18 10:21:53;;;;;;;8.05;4.28;;;;;;;-4.53;44.79;102931.13;4929066;28;20043;-71
2022/12/18 10:24:35;;;;;;;20.35;7.95;;;;;;;-4.59;44.95;102932.47;4928792;28;20167;-71
2022/12/18 10:27:14;;;;;;;11.38;4.80;;;;;;;-4.42;44.81;102931.72;4929468;28;20111;-71
2022/12/18 10:29:42;;;;;;;13.77;5.07;;;;;;;-4.23;44.28;102915.75;4926996;28;20501;-71
2022/12/18 10:32:15;;;;;;;7.82;4.75;;;;;;;-4.30;44.33;102903.41;4932255;28;20044;-71
2022/12/18 10:34:40;;;;;;;7.18;3.33;;;;;;;-4.21;43.91;102910.69;4923272;29;20047;-72
2022/12/18 10:37:15;;;;;;;6.95;3.65;;;;;;;-4.12;43.95;102907.00;4927004;28;20048;-72
2022/12/18 10:39:41;;;;;;;8.82;4.63;;;;;;;-4.13;44.17;102896.69;4928910;29;20030;-72
2022/12/18 10:42:16;;;;;;;13.48;4.55;;;;;;;-4.06;44.23;102893.66;4914512;29;20445;-71
2022/12/18 10:44:42;;;;;;;9.15;4.22;;;;;;;-3.84;43.83;102888.00;4927781;29;20356;-72
2022/12/18 10:47:14;;;;;;;6.63;4.18;;;;;;;-3.82;43.72;102877.84;4915286;28;20051;-72
2022/12/18 10:49:48;;;;;;;8.10;4.13;;;;;;;-3.74;43.79;102880.00;4929040;29;20057;-72
2022/12/18 10:52:16;;;;;;;8.02;3.50;;;;;;;-3.80;43.37;102876.25;4928289;28;20062;-71
2022/12/18 10:55:16;;;;;;;11.05;4.30;;;;;;;-3.70;43.42;102883.59;4927515;29;20040;-71
2022/12/18 10:57:41;;;;;;;10.10;5.10;;;;;;;-3.55;43.09;102871.59;4933257;28;20051;-72
2022/12/18 11:00:31;;;;;;;9.75;3.88;;;;;;;-3.53;43.24;102871.69;4918454;29;20054;-72
2022/12/18 11:02:57;;;;;;;7.38;3.08;;;;;;;-3.78;43.16;102887.44;4913084;29;20043;-72
2022/12/18 11:05:28;;;;;;;6.70;3.92;;;;;;;-3.54;43.33;102881.03;4920381;29;20040;-72
2022/12/18 11:07:55;;;;;;;10.35;3.67;;;;;;;-3.61;42.74;102884.06;4926982;28;20207;-72
2022/12/18 11:10:25;;;;;;;7.90;4.75;;;;;;;-3.32;42.17;102879.53;4930940;29;20070;-73
2022/12/18 11:12:52;;;;;;;7.57;3.28;;;;;;;-3.14;42.78;102875.34;4938329;28;20043;-72
2022/12/18 11:15:21;;;;;;;6.57;3.58;;;;;;;-3.31;42.49;102868.53;4941099;29;20051;-71
2022/12/18 11:17:50;;;;;;;7.53;3.55;;;;;;;-3.16;42.20;102871.84;4927726;29;20055;-72
2022/12/18 11:20:21;;;;;;;7.38;3.53;;;;;;;-3.43;42.80;102867.91;4942932;29;20054;-72
2022/12/18 11:23:00;;;;;;;9.10;4.32;;;;;;;-3.00;42.30;102855.53;4937738;28;20059;-72
2022/12/18 11:25:30;;;;;;;7.55;3.55;;;;;;;-2.83;42.06;102848.66;4941143;28;20035;-72
2022/12/18 11:28:02;;;;;;;7.30;3.38;;;;;;;-2.85;42.15;102837.47;4932104;28;20051;-72